sensor_id;sensor_type;location;lat;lon;timestamp;P1;durP1;ratioP1;P2;durP2;ratioP2
51292;SDS011;37377;45.186;9.778;2022-12-11T00:00:37;58.28;;;31.90;;
51292;SDS011;37377;45.186;9.778;2022-12-11T00:03:05;52.45;;;31.63;;
51292;SDS011;37377;45.186;9.778;2022-12-11T00:05:40;58.40;;;31.48;;
51292;SDS011;37377;45.186;9.778;2022-12-11T00:08:07;49.72;;;28.85;;
51292;SDS011;37377;45.186;9.778;2022-12-11T00:10:33;52.78;;;31.25;;
51292;SDS011;37377;45.186;9.778;2022-12-11T00:13:03;51.88;;;30.33;;
51292;SDS011;37377;45.186;9.778;2022-12-11T00:15:31;52.13;;;29.98;;
51292;SDS011;37377;45.186;9.778;2022-12-11T00:17:57;54.78;;;30.38;;
51292;SDS011;37377;45.186;9.778;2022-12-11T00:20:24;51.25;;;30.52;;
51292;SDS011;37377;45.186;9.778;2022-12-11T00:22:52;49.35;;;28.33;;
51292;SDS011;37377;45.186;9.778;2022-12-11T00:25:19;52.80;;;31.38;;
51292;SDS011;37377;45.186;9.778;2022-12-11T00:27:46;60.90;;;30.45;;
51292;SDS011;37377;45.186;9.778;2022-12-11T00:30:13;53.63;;;30.40;;
51292;SDS011;37377;45.186;9.778;2022-12-11T00:32:40;58.95;;;31.77;;
51292;SDS011;37377;45.186;9.778;2022-12-11T00:35:07;56.40;;;32.25;;
51292;SDS011;37377;45.186;9.778;2022-12-11T00:37:34;59.45;;;31.90;;
51292;SDS011;37377;45.186;9.778;2022-12-11T00:40:02;59.20;;;33.28;;
51292;SDS011;37377;45.186;9.778;2022-12-11T00:42:32;60.15;;;32.20;;
51292;SDS011;37377;45.186;9.778;2022-12-11T00:44:58;68.63;;;32.03;;
51292;SDS011;37377;45.186;9.778;2022-12-11T00:47:25;55.70;;;31.73;;
51292;SDS011;37377;45.186;9.778;2022-12-11T00:49:52;53.83;;;31.02;;
51292;SDS011;37377;45.186;9.778;2022-12-11T00:52:18;61.13;;;33.20;;
51292;SDS011;37377;45.186;9.778;2022-12-11T00:54:45;54.63;;;31.25;;
51292;SDS011;37377;45.186;9.778;2022-12-11T00:57:13;53.85;;;29.65;;
51292;SDS011;37377;45.186;9.778;2022-12-11T00:59:40;53.45;;;29.00;;
51292;SDS011;37377;45.186;9.778;2022-12-11T01:02:09;50.25;;;28.38;;
51292;SDS011;37377;45.186;9.778;2022-12-11T01:04:36;49.38;;;27.35;;
51292;SDS011;37377;45.186;9.778;2022-12-11T01:07:03;46.00;;;26.20;;
51292;SDS011;37377;45.186;9.778;2022-12-11T01:09:30;43.22;;;25.23;;
51292;SDS011;37377;45.186;9.778;2022-12-11T01:12:16;42.50;;;24.77;;
51292;SDS011;37377;45.186;9.778;2022-12-11T01:14:43;44.95;;;24.90;;
51292;SDS011;37377;45.186;9.778;2022-12-11T01:17:09;47.88;;;26.00;;
51292;SDS011;37377;45.186;9.778;2022-12-11T01:19:37;43.25;;;25.40;;
51292;SDS011;37377;45.186;9.778;2022-12-11T01:22:04;44.20;;;24.60;;
51292;SDS011;37377;45.186;9.778;2022-12-11T01:24:32;45.13;;;24.73;;
51292;SDS011;37377;45.186;9.778;2022-12-11T01:26:59;36.85;;;22.83;;
51292;SDS011;37377;45.186;9.778;2022-12-11T01:29:26;40.58;;;23.27;;
51292;SDS011;37377;45.186;9.778;2022-12-11T01:31:53;41.83;;;24.13;;
51292;SDS011;37377;45.186;9.778;2022-12-11T01:34:19;38.50;;;22.23;;
51292;SDS011;37377;45.186;9.778;2022-12-11T01:36:46;45.60;;;23.58;;
51292;SDS011;37377;45.186;9.778;2022-12-11T01:39:13;45.58;;;24.38;;
51292;SDS011;37377;45.186;9.778;2022-12-11T01:41:40;45.15;;;24.92;;
51292;SDS011;37377;45.186;9.778;2022-12-11T01:46:41;43.25;;;24.33;;
51292;SDS011;37377;45.186;9.778;2022-12-11T01:49:09;44.50;;;25.63;;
51292;SDS011;37377;45.186;9.778;2022-12-11T01:51:43;41.67;;;22.98;;
51292;SDS011;37377;45.186;9.778;2022-12-11T01:54:13;41.30;;;23.90;;
51292;SDS011;37377;45.186;9.778;2022-12-11T01:56:41;42.88;;;23.75;;
51292;SDS011;37377;45.186;9.778;2022-12-11T01:59:09;45.75;;;24.45;;
51292;SDS011;37377;45.186;9.778;2022-12-11T02:01:49;36.85;;;20.92;;
51292;SDS011;37377;45.186;9.778;2022-12-11T02:04:18;41.75;;;23.55;;
51292;SDS011;37377;45.186;9.778;2022-12-11T02:06:46;43.70;;;23.83;;
51292;SDS011;37377;45.186;9.778;2022-12-11T02:09:28;41.30;;;22.20;;
51292;SDS011;37377;45.186;9.778;2022-12-11T02:17:13;43.65;;;23.77;;
51292;SDS011;37377;45.186;9.778;2022-12-11T02:22:10;38.08;;;22.67;;
51292;SDS011;37377;45.186;9.778;2022-12-11T02:24:41;35.13;;;21.02;;
51292;SDS011;37377;45.186;9.778;2022-12-11T02:27:22;35.33;;;20.98;;
51292;SDS011;37377;45.186;9.778;2022-12-11T02:29:54;36.78;;;20.30;;
51292;SDS011;37377;45.186;9.778;2022-12-11T02:32:37;34.28;;;20.42;;
51292;SDS011;37377;45.186;9.778;2022-12-11T02:35:16;32.17;;;19.77;;
51292;SDS011;37377;45.186;9.778;2022-12-11T02:37:44;33.28;;;18.45;;
51292;SDS011;37377;45.186;9.778;2022-12-11T02:40:12;35.78;;;19.83;;
51292;SDS011;37377;45.186;9.778;2022-12-11T02:42:41;34.10;;;19.30;;
51292;SDS011;37377;45.186;9.778;2022-12-11T02:45:08;32.70;;;19.30;;
51292;SDS011;37377;45.186;9.778;2022-12-11T02:47:36;32.72;;;19.23;;
51292;SDS011;37377;45.186;9.778;2022-12-11T02:50:06;33.28;;;18.52;;
51292;SDS011;37377;45.186;9.778;2022-12-11T02:52:35;29.45;;;17.77;;
51292;SDS011;37377;45.186;9.778;2022-12-11T02:55:05;28.85;;;17.40;;
51292;SDS011;37377;45.186;9.778;2022-12-11T02:57:41;26.23;;;17.17;;
51292;SDS011;37377;45.186;9.778;2022-12-11T03:00:09;29.27;;;17.77;;
51292;SDS011;37377;45.186;9.778;2022-12-11T03:02:37;23.30;;;15.93;;
51292;SDS011;37377;45.186;9.778;2022-12-11T03:05:04;29.60;;;16.95;;
51292;SDS011;37377;45.186;9.778;2022-12-11T03:07:32;26.55;;;17.48;;
51292;SDS011;37377;45.186;9.778;2022-12-11T03:09:59;30.73;;;17.60;;
51292;SDS011;37377;45.186;9.778;2022-12-11T03:12:28;33.33;;;18.42;;
51292;SDS011;37377;45.186;9.778;2022-12-11T03:14:55;33.38;;;17.23;;
51292;SDS011;37377;45.186;9.778;2022-12-11T03:17:24;29.15;;;17.40;;
51292;SDS011;37377;45.186;9.778;2022-12-11T03:22:46;29.03;;;16.97;;
51292;SDS011;37377;45.186;9.778;2022-12-11T03:25:19;31.63;;;18.17;;
51292;SDS011;37377;45.186;9.778;2022-12-11T03:27:49;30.02;;;15.95;;
51292;SDS011;37377;45.186;9.778;2022-12-11T03:30:19;26.35;;;16.63;;
51292;SDS011;37377;45.186;9.778;2022-12-11T03:32:54;31.25;;;17.58;;
51292;SDS011;37377;45.186;9.778;2022-12-11T03:35:41;30.70;;;17.08;;
51292;SDS011;37377;45.186;9.778;2022-12-11T03:38:33;25.75;;;15.75;;
51292;SDS011;37377;45.186;9.778;2022-12-11T03:41:02;25.77;;;15.25;;
51292;SDS011;37377;45.186;9.778;2022-12-11T03:43:31;22.25;;;14.98;;
51292;SDS011;37377;45.186;9.778;2022-12-11T03:45:58;23.77;;;14.93;;
51292;SDS011;37377;45.186;9.778;2022-12-11T03:48:27;21.90;;;14.00;;
51292;SDS011;37377;45.186;9.778;2022-12-11T03:50:55;21.35;;;13.48;;
51292;SDS011;37377;45.186;9.778;2022-12-11T03:53:22;20.23;;;13.60;;
51292;SDS011;37377;45.186;9.778;2022-12-11T03:55:51;19.52;;;12.43;;
51292;SDS011;37377;45.186;9.778;2022-12-11T03:58:18;17.48;;;12.65;;
51292;SDS011;37377;45.186;9.778;2022-12-11T04:00:46;17.38;;;13.25;;
51292;SDS011;37377;45.186;9.778;2022-12-11T04:03:13;15.75;;;11.43;;
51292;SDS011;37377;45.186;9.778;2022-12-11T04:05:47;18.75;;;12.55;;
51292;SDS011;37377;45.186;9.778;2022-12-11T04:08:15;16.77;;;12.50;;
51292;SDS011;37377;45.186;9.778;2022-12-11T04:10:45;16.23;;;12.18;;
51292;SDS011;37377;45.186;9.778;2022-12-11T04:13:12;20.75;;;12.48;;
51292;SDS011;37377;45.186;9.778;2022-12-11T04:15:39;23.15;;;12.38;;
51292;SDS011;37377;45.186;9.778;2022-12-11T04:18:06;19.48;;;12.32;;
51292;SDS011;37377;45.186;9.778;2022-12-11T04:20:52;17.95;;;11.55;;
51292;SDS011;37377;45.186;9.778;2022-12-11T04:23:45;21.88;;;13.02;;
51292;SDS011;37377;45.186;9.778;2022-12-11T04:26:30;15.68;;;12.00;;
51292;SDS011;37377;45.186;9.778;2022-12-11T04:28:57;18.65;;;12.60;;
51292;SDS011;37377;45.186;9.778;2022-12-11T04:31:24;17.02;;;12.23;;
51292;SDS011;37377;45.186;9.778;2022-12-11T04:33:52;19.25;;;12.65;;
51292;SDS011;37377;45.186;9.778;2022-12-11T04:36:18;15.73;;;11.32;;
51292;SDS011;37377;45.186;9.778;2022-12-11T04:38:45;15.40;;;11.95;;
51292;SDS011;37377;45.186;9.778;2022-12-11T04:41:13;17.48;;;12.40;;
51292;SDS011;37377;45.186;9.778;2022-12-11T04:43:40;16.17;;;11.88;;
51292;SDS011;37377;45.186;9.778;2022-12-11T04:46:13;15.40;;;11.88;;
51292;SDS011;37377;45.186;9.778;2022-12-11T04:48:40;15.38;;;11.52;;
51292;SDS011;37377;45.186;9.778;2022-12-11T04:51:07;16.27;;;10.82;;
51292;SDS011;37377;45.186;9.778;2022-12-11T04:53:34;16.98;;;11.43;;
51292;SDS011;37377;45.186;9.778;2022-12-11T04:56:05;17.45;;;12.27;;
51292;SDS011;37377;45.186;9.778;2022-12-11T04:58:32;15.80;;;11.65;;
51292;SDS011;37377;45.186;9.778;2022-12-11T05:01:08;16.83;;;11.27;;
51292;SDS011;37377;45.186;9.778;2022-12-11T05:03:36;14.85;;;11.45;;
51292;SDS011;37377;45.186;9.778;2022-12-11T05:06:04;18.63;;;10.68;;
51292;SDS011;37377;45.186;9.778;2022-12-11T05:08:32;19.00;;;12.35;;
51292;SDS011;37377;45.186;9.778;2022-12-11T05:11:01;19.13;;;12.85;;
51292;SDS011;37377;45.186;9.778;2022-12-11T05:13:28;18.27;;;12.95;;
51292;SDS011;37377;45.186;9.778;2022-12-11T05:15:55;20.52;;;12.27;;
51292;SDS011;37377;45.186;9.778;2022-12-11T05:18:23;24.60;;;13.30;;
51292;SDS011;37377;45.186;9.778;2022-12-11T05:20:53;23.27;;;14.15;;
51292;SDS011;37377;45.186;9.778;2022-12-11T05:23:20;33.35;;;16.10;;
51292;SDS011;37377;45.186;9.778;2022-12-11T05:25:51;30.75;;;15.05;;
51292;SDS011;37377;45.186;9.778;2022-12-11T05:28:17;30.45;;;15.57;;
51292;SDS011;37377;45.186;9.778;2022-12-11T05:30:45;33.85;;;17.35;;
51292;SDS011;37377;45.186;9.778;2022-12-11T05:33:12;40.47;;;17.00;;
51292;SDS011;37377;45.186;9.778;2022-12-11T05:35:45;39.63;;;17.38;;
51292;SDS011;37377;45.186;9.778;2022-12-11T05:38:12;35.75;;;16.83;;
51292;SDS011;37377;45.186;9.778;2022-12-11T05:40:38;32.63;;;16.77;;
51292;SDS011;37377;45.186;9.778;2022-12-11T05:43:06;43.30;;;16.92;;
51292;SDS011;37377;45.186;9.778;2022-12-11T05:45:32;30.15;;;17.23;;
51292;SDS011;37377;45.186;9.778;2022-12-11T05:47:59;35.42;;;17.27;;
51292;SDS011;37377;45.186;9.778;2022-12-11T05:50:26;34.67;;;18.25;;
51292;SDS011;37377;45.186;9.778;2022-12-11T05:52:53;33.72;;;16.92;;
51292;SDS011;37377;45.186;9.778;2022-12-11T05:55:19;33.97;;;17.88;;
51292;SDS011;37377;45.186;9.778;2022-12-11T05:57:46;33.05;;;17.20;;
51292;SDS011;37377;45.186;9.778;2022-12-11T06:00:14;31.17;;;17.30;;
51292;SDS011;37377;45.186;9.778;2022-12-11T06:02:41;29.67;;;17.05;;
51292;SDS011;37377;45.186;9.778;2022-12-11T06:05:08;33.10;;;17.58;;
51292;SDS011;37377;45.186;9.778;2022-12-11T06:07:35;29.67;;;16.83;;
51292;SDS011;37377;45.186;9.778;2022-12-11T06:10:02;29.77;;;17.25;;
51292;SDS011;37377;45.186;9.778;2022-12-11T06:12:29;31.95;;;17.65;;
51292;SDS011;37377;45.186;9.778;2022-12-11T06:14:58;32.05;;;17.92;;
51292;SDS011;37377;45.186;9.778;2022-12-11T06:17:25;33.65;;;17.90;;
51292;SDS011;37377;45.186;9.778;2022-12-11T06:19:52;38.15;;;18.08;;
51292;SDS011;37377;45.186;9.778;2022-12-11T06:22:18;34.35;;;17.90;;
51292;SDS011;37377;45.186;9.778;2022-12-11T06:24:45;32.20;;;17.75;;
51292;SDS011;37377;45.186;9.778;2022-12-11T06:27:13;34.13;;;18.05;;
51292;SDS011;37377;45.186;9.778;2022-12-11T06:29:40;34.80;;;18.20;;
51292;SDS011;37377;45.186;9.778;2022-12-11T06:32:07;35.25;;;19.50;;
51292;SDS011;37377;45.186;9.778;2022-12-11T06:34:33;31.15;;;17.05;;
51292;SDS011;37377;45.186;9.778;2022-12-11T06:37:00;46.28;;;19.42;;
51292;SDS011;37377;45.186;9.778;2022-12-11T06:39:27;30.27;;;17.95;;
51292;SDS011;37377;45.186;9.778;2022-12-11T06:41:53;30.13;;;16.98;;
51292;SDS011;37377;45.186;9.778;2022-12-11T06:44:20;27.70;;;16.50;;
51292;SDS011;37377;45.186;9.778;2022-12-11T06:46:47;27.02;;;15.68;;
51292;SDS011;37377;45.186;9.778;2022-12-11T06:49:14;28.08;;;17.73;;
51292;SDS011;37377;45.186;9.778;2022-12-11T06:51:41;30.13;;;16.88;;
51292;SDS011;37377;45.186;9.778;2022-12-11T06:54:08;22.40;;;15.13;;
51292;SDS011;37377;45.186;9.778;2022-12-11T06:56:35;23.42;;;14.40;;
51292;SDS011;37377;45.186;9.778;2022-12-11T06:59:03;26.05;;;14.70;;
51292;SDS011;37377;45.186;9.778;2022-12-11T07:01:33;23.55;;;14.50;;
51292;SDS011;37377;45.186;9.778;2022-12-11T07:03:59;21.85;;;14.75;;
51292;SDS011;37377;45.186;9.778;2022-12-11T07:06:26;21.20;;;14.10;;
51292;SDS011;37377;45.186;9.778;2022-12-11T07:08:54;18.35;;;13.43;;
51292;SDS011;37377;45.186;9.778;2022-12-11T07:11:24;20.25;;;12.88;;
51292;SDS011;37377;45.186;9.778;2022-12-11T07:14:01;17.85;;;12.45;;
51292;SDS011;37377;45.186;9.778;2022-12-11T07:16:29;28.17;;;12.02;;
51292;SDS011;37377;45.186;9.778;2022-12-11T07:19:09;15.68;;;11.85;;
51292;SDS011;37377;45.186;9.778;2022-12-11T07:21:39;15.80;;;11.27;;
51292;SDS011;37377;45.186;9.778;2022-12-11T07:24:11;17.23;;;11.40;;
51292;SDS011;37377;45.186;9.778;2022-12-11T07:26:42;15.82;;;11.63;;
51292;SDS011;37377;45.186;9.778;2022-12-11T07:29:13;16.15;;;10.70;;
51292;SDS011;37377;45.186;9.778;2022-12-11T07:31:45;17.27;;;11.13;;
51292;SDS011;37377;45.186;9.778;2022-12-11T07:34:15;15.80;;;10.90;;
51292;SDS011;37377;45.186;9.778;2022-12-11T07:36:47;14.75;;;10.48;;
51292;SDS011;37377;45.186;9.778;2022-12-11T07:39:16;13.25;;;10.55;;
51292;SDS011;37377;45.186;9.778;2022-12-11T07:41:50;18.85;;;11.55;;
51292;SDS011;37377;45.186;9.778;2022-12-11T07:44:22;17.63;;;10.35;;
51292;SDS011;37377;45.186;9.778;2022-12-11T07:46:49;14.70;;;11.35;;
51292;SDS011;37377;45.186;9.778;2022-12-11T07:49:23;14.13;;;10.80;;
51292;SDS011;37377;45.186;9.778;2022-12-11T07:51:51;13.60;;;10.20;;
51292;SDS011;37377;45.186;9.778;2022-12-11T07:54:21;15.52;;;11.25;;
51292;SDS011;37377;45.186;9.778;2022-12-11T07:56:53;16.35;;;11.43;;
51292;SDS011;37377;45.186;9.778;2022-12-11T07:59:26;15.02;;;10.65;;
51292;SDS011;37377;45.186;9.778;2022-12-11T08:02:01;14.15;;;11.00;;
51292;SDS011;37377;45.186;9.778;2022-12-11T08:04:32;13.95;;;11.55;;
51292;SDS011;37377;45.186;9.778;2022-12-11T08:06:59;17.95;;;11.60;;
51292;SDS011;37377;45.186;9.778;2022-12-11T08:09:31;14.13;;;10.88;;
51292;SDS011;37377;45.186;9.778;2022-12-11T08:12:01;14.90;;;10.98;;
51292;SDS011;37377;45.186;9.778;2022-12-11T08:14:29;21.27;;;14.38;;
51292;SDS011;37377;45.186;9.778;2022-12-11T08:17:01;16.65;;;11.15;;
51292;SDS011;37377;45.186;9.778;2022-12-11T08:19:28;18.67;;;13.48;;
51292;SDS011;37377;45.186;9.778;2022-12-11T08:21:56;15.95;;;11.82;;
51292;SDS011;37377;45.186;9.778;2022-12-11T08:24:29;17.67;;;11.50;;
51292;SDS011;37377;45.186;9.778;2022-12-11T08:27:00;15.05;;;11.25;;
51292;SDS011;37377;45.186;9.778;2022-12-11T08:29:37;16.05;;;11.27;;
51292;SDS011;37377;45.186;9.778;2022-12-11T08:32:04;12.95;;;11.20;;
51292;SDS011;37377;45.186;9.778;2022-12-11T08:34:40;14.82;;;12.20;;
51292;SDS011;37377;45.186;9.778;2022-12-11T08:37:15;13.52;;;11.45;;
51292;SDS011;37377;45.186;9.778;2022-12-11T08:39:45;15.05;;;12.35;;
51292;SDS011;37377;45.186;9.778;2022-12-11T08:42:13;12.80;;;11.02;;
51292;SDS011;37377;45.186;9.778;2022-12-11T08:44:41;13.70;;;12.13;;
51292;SDS011;37377;45.186;9.778;2022-12-11T08:47:14;16.38;;;12.15;;
51292;SDS011;37377;45.186;9.778;2022-12-11T08:49:46;18.25;;;13.98;;
51292;SDS011;37377;45.186;9.778;2022-12-11T08:52:22;13.50;;;12.05;;
51292;SDS011;37377;45.186;9.778;2022-12-11T08:54:53;17.20;;;12.02;;
51292;SDS011;37377;45.186;9.778;2022-12-11T08:57:26;18.05;;;13.55;;
51292;SDS011;37377;45.186;9.778;2022-12-11T08:59:56;17.02;;;13.00;;
51292;SDS011;37377;45.186;9.778;2022-12-11T09:02:28;15.95;;;12.02;;
51292;SDS011;37377;45.186;9.778;2022-12-11T09:04:59;16.95;;;12.07;;
51292;SDS011;37377;45.186;9.778;2022-12-11T09:07:35;14.85;;;11.73;;
51292;SDS011;37377;45.186;9.778;2022-12-11T09:10:06;13.80;;;12.25;;
51292;SDS011;37377;45.186;9.778;2022-12-11T09:12:42;18.45;;;12.55;;
51292;SDS011;37377;45.186;9.778;2022-12-11T09:15:11;13.98;;;12.48;;
51292;SDS011;37377;45.186;9.778;2022-12-11T09:17:39;16.13;;;11.80;;
51292;SDS011;37377;45.186;9.778;2022-12-11T09:20:07;14.95;;;12.77;;
51292;SDS011;37377;45.186;9.778;2022-12-11T09:22:37;13.05;;;11.52;;
51292;SDS011;37377;45.186;9.778;2022-12-11T09:25:11;12.30;;;10.95;;
51292;SDS011;37377;45.186;9.778;2022-12-11T09:27:39;15.18;;;11.80;;
51292;SDS011;37377;45.186;9.778;2022-12-11T09:30:10;13.30;;;11.20;;
51292;SDS011;37377;45.186;9.778;2022-12-11T09:32:39;12.82;;;11.05;;
51292;SDS011;37377;45.186;9.778;2022-12-11T09:35:11;11.98;;;10.55;;
51292;SDS011;37377;45.186;9.778;2022-12-11T09:37:46;12.18;;;10.57;;
51292;SDS011;37377;45.186;9.778;2022-12-11T09:40:13;15.15;;;11.32;;
51292;SDS011;37377;45.186;9.778;2022-12-11T09:42:46;19.55;;;13.95;;
51292;SDS011;37377;45.186;9.778;2022-12-11T09:45:29;16.98;;;13.82;;
51292;SDS011;37377;45.186;9.778;2022-12-11T09:53:04;12.88;;;10.23;;
51292;SDS011;37377;45.186;9.778;2022-12-11T10:16:55;14.20;;;12.00;;
51292;SDS011;37377;45.186;9.778;2022-12-11T10:19:28;20.80;;;11.98;;
51292;SDS011;37377;45.186;9.778;2022-12-11T10:21:56;20.08;;;13.50;;
51292;SDS011;37377;45.186;9.778;2022-12-11T10:27:22;18.80;;;15.70;;
51292;SDS011;37377;45.186;9.778;2022-12-11T10:29:57;20.50;;;15.52;;
51292;SDS011;37377;45.186;9.778;2022-12-11T10:32:31;23.27;;;14.05;;
51292;SDS011;37377;45.186;9.778;2022-12-11T10:35:05;18.20;;;12.43;;
51292;SDS011;37377;45.186;9.778;2022-12-11T10:37:39;16.55;;;11.85;;
51292;SDS011;37377;45.186;9.778;2022-12-11T10:40:11;19.85;;;11.55;;
51292;SDS011;37377;45.186;9.778;2022-12-11T10:42:53;18.27;;;15.15;;
51292;SDS011;37377;45.186;9.778;2022-12-11T10:45:23;17.40;;;9.98;;
51292;SDS011;37377;45.186;9.778;2022-12-11T10:48:08;25.02;;;10.88;;
51292;SDS011;37377;45.186;9.778;2022-12-11T10:50:40;11.88;;;10.00;;
51292;SDS011;37377;45.186;9.778;2022-12-11T10:53:29;12.38;;;10.43;;
51292;SDS011;37377;45.186;9.778;2022-12-11T10:55:56;16.23;;;10.23;;
51292;SDS011;37377;45.186;9.778;2022-12-11T10:58:31;9.38;;;8.48;;
51292;SDS011;37377;45.186;9.778;2022-12-11T11:01:15;10.68;;;9.48;;
51292;SDS011;37377;45.186;9.778;2022-12-11T11:06:15;8.68;;;7.68;;
51292;SDS011;37377;45.186;9.778;2022-12-11T11:08:47;14.95;;;9.63;;
51292;SDS011;37377;45.186;9.778;2022-12-11T11:11:35;9.63;;;8.63;;
51292;SDS011;37377;45.186;9.778;2022-12-11T11:16:34;9.90;;;8.73;;
51292;SDS011;37377;45.186;9.778;2022-12-11T11:19:02;8.45;;;7.35;;
51292;SDS011;37377;45.186;9.778;2022-12-11T11:21:29;7.68;;;6.43;;
51292;SDS011;37377;45.186;9.778;2022-12-11T11:23:57;7.80;;;6.68;;
51292;SDS011;37377;45.186;9.778;2022-12-11T11:26:24;11.57;;;6.50;;
51292;SDS011;37377;45.186;9.778;2022-12-11T11:29:19;7.15;;;5.45;;
51292;SDS011;37377;45.186;9.778;2022-12-11T11:31:48;5.05;;;4.65;;
51292;SDS011;37377;45.186;9.778;2022-12-11T11:34:17;4.80;;;4.30;;
51292;SDS011;37377;45.186;9.778;2022-12-11T11:36:53;4.75;;;4.35;;
51292;SDS011;37377;45.186;9.778;2022-12-11T11:44:36;5.82;;;4.95;;
51292;SDS011;37377;45.186;9.778;2022-12-11T11:47:25;4.90;;;4.07;;
51292;SDS011;37377;45.186;9.778;2022-12-11T11:52:24;4.13;;;2.22;;
51292;SDS011;37377;45.186;9.778;2022-12-11T12:00:06;2.08;;;1.63;;
51292;SDS011;37377;45.186;9.778;2022-12-11T12:02:41;1.92;;;1.67;;
51292;SDS011;37377;45.186;9.778;2022-12-11T12:05:12;1.60;;;1.50;;
51292;SDS011;37377;45.186;9.778;2022-12-11T12:16:06;1.50;;;1.33;;
51292;SDS011;37377;45.186;9.778;2022-12-11T12:19:11;1.50;;;1.40;;
51292;SDS011;37377;45.186;9.778;2022-12-11T12:21:38;2.47;;;1.90;;
51292;SDS011;37377;45.186;9.778;2022-12-11T12:26:35;4.50;;;2.20;;
51292;SDS011;37377;45.186;9.778;2022-12-11T12:41:45;2.50;;;2.30;;
51292;SDS011;37377;45.186;9.778;2022-12-11T12:44:14;2.50;;;2.30;;
51292;SDS011;37377;45.186;9.778;2022-12-11T12:49:24;2.75;;;2.53;;
51292;SDS011;37377;45.186;9.778;2022-12-11T12:51:51;3.70;;;2.47;;
51292;SDS011;37377;45.186;9.778;2022-12-11T12:54:19;3.00;;;2.60;;
51292;SDS011;37377;45.186;9.778;2022-12-11T12:56:46;3.95;;;2.15;;
51292;SDS011;37377;45.186;9.778;2022-12-11T12:59:21;2.13;;;1.75;;
51292;SDS011;37377;45.186;9.778;2022-12-11T13:01:50;1.70;;;1.40;;
51292;SDS011;37377;45.186;9.778;2022-12-11T13:04:27;2.00;;;1.50;;
51292;SDS011;37377;45.186;9.778;2022-12-11T13:07:16;5.35;;;1.40;;
51292;SDS011;37377;45.186;9.778;2022-12-11T13:10:45;2.47;;;1.50;;
51292;SDS011;37377;45.186;9.778;2022-12-11T13:12:42;1.40;;;1.30;;
51292;SDS011;37377;45.186;9.778;2022-12-11T13:20:55;2.90;;;2.47;;
51292;SDS011;37377;45.186;9.778;2022-12-11T13:23:27;3.67;;;3.33;;
51292;SDS011;37377;45.186;9.778;2022-12-11T13:25:55;4.95;;;2.63;;
51292;SDS011;37377;45.186;9.778;2022-12-11T13:28:33;6.35;;;3.85;;
51292;SDS011;37377;45.186;9.778;2022-12-11T13:33:44;4.53;;;3.75;;
51292;SDS011;37377;45.186;9.778;2022-12-11T13:36:22;5.18;;;3.42;;
51292;SDS011;37377;45.186;9.778;2022-12-11T13:38:52;8.30;;;3.30;;
51292;SDS011;37377;45.186;9.778;2022-12-11T13:41:20;3.95;;;1.90;;
51292;SDS011;37377;45.186;9.778;2022-12-11T13:43:48;3.05;;;2.00;;
51292;SDS011;37377;45.186;9.778;2022-12-11T13:46:18;2.60;;;1.80;;
51292;SDS011;37377;45.186;9.778;2022-12-11T13:48:52;1.88;;;1.40;;
51292;SDS011;37377;45.186;9.778;2022-12-11T13:51:23;2.10;;;1.10;;
51292;SDS011;37377;45.186;9.778;2022-12-11T13:54:04;3.15;;;1.08;;
51292;SDS011;37377;45.186;9.778;2022-12-11T13:56:37;3.30;;;1.05;;
51292;SDS011;37377;45.186;9.778;2022-12-11T13:59:04;2.33;;;1.20;;
51292;SDS011;37377;45.186;9.778;2022-12-11T14:01:31;3.95;;;1.25;;
51292;SDS011;37377;45.186;9.778;2022-12-11T14:06:26;1.75;;;1.00;;
51292;SDS011;37377;45.186;9.778;2022-12-11T14:08:55;2.10;;;1.10;;
51292;SDS011;37377;45.186;9.778;2022-12-11T14:11:27;2.75;;;1.27;;
51292;SDS011;37377;45.186;9.778;2022-12-11T14:13:56;1.75;;;1.50;;
51292;SDS011;37377;45.186;9.778;2022-12-11T14:16:24;3.40;;;1.40;;
51292;SDS011;37377;45.186;9.778;2022-12-11T14:18:53;1.92;;;1.42;;
51292;SDS011;37377;45.186;9.778;2022-12-11T14:21:23;1.70;;;1.52;;
51292;SDS011;37377;45.186;9.778;2022-12-11T14:24:00;5.53;;;1.70;;
51292;SDS011;37377;45.186;9.778;2022-12-11T14:26:29;2.63;;;1.35;;
51292;SDS011;37377;45.186;9.778;2022-12-11T14:28:56;5.57;;;1.45;;
51292;SDS011;37377;45.186;9.778;2022-12-11T14:31:26;5.30;;;1.48;;
51292;SDS011;37377;45.186;9.778;2022-12-11T14:33:57;1.52;;;1.42;;
51292;SDS011;37377;45.186;9.778;2022-12-11T14:36:26;2.58;;;1.45;;
51292;SDS011;37377;45.186;9.778;2022-12-11T14:38:55;5.05;;;1.50;;
51292;SDS011;37377;45.186;9.778;2022-12-11T14:41:27;1.80;;;1.70;;
51292;SDS011;37377;45.186;9.778;2022-12-11T14:43:56;1.80;;;1.58;;
51292;SDS011;37377;45.186;9.778;2022-12-11T14:46:37;1.95;;;1.58;;
51292;SDS011;37377;45.186;9.778;2022-12-11T14:49:07;1.80;;;1.65;;
51292;SDS011;37377;45.186;9.778;2022-12-11T14:51:38;1.83;;;1.58;;
51292;SDS011;37377;45.186;9.778;2022-12-11T14:54:10;2.38;;;1.95;;
51292;SDS011;37377;45.186;9.778;2022-12-11T14:56:46;1.83;;;1.60;;
51292;SDS011;37377;45.186;9.778;2022-12-11T14:59:16;2.85;;;1.80;;
51292;SDS011;37377;45.186;9.778;2022-12-11T15:01:44;2.58;;;1.60;;
51292;SDS011;37377;45.186;9.778;2022-12-11T15:06:42;2.03;;;1.83;;
51292;SDS011;37377;45.186;9.778;2022-12-11T15:12:11;1.80;;;1.70;;
51292;SDS011;37377;45.186;9.778;2022-12-11T15:14:46;2.80;;;2.13;;
51292;SDS011;37377;45.186;9.778;2022-12-11T15:17:14;3.58;;;2.47;;
51292;SDS011;37377;45.186;9.778;2022-12-11T15:19:41;4.57;;;2.22;;
51292;SDS011;37377;45.186;9.778;2022-12-11T15:22:12;2.03;;;1.83;;
51292;SDS011;37377;45.186;9.778;2022-12-11T15:24:41;2.13;;;1.80;;
51292;SDS011;37377;45.186;9.778;2022-12-11T15:29:47;6.65;;;2.25;;
51292;SDS011;37377;45.186;9.778;2022-12-11T15:32:15;2.67;;;2.28;;
51292;SDS011;37377;45.186;9.778;2022-12-11T15:34:52;3.20;;;2.75;;
51292;SDS011;37377;45.186;9.778;2022-12-11T15:37:24;3.42;;;2.10;;
51292;SDS011;37377;45.186;9.778;2022-12-11T15:39:51;8.20;;;2.45;;
51292;SDS011;37377;45.186;9.778;2022-12-11T15:42:26;3.35;;;2.38;;
51292;SDS011;37377;45.186;9.778;2022-12-11T15:44:55;3.28;;;2.28;;
51292;SDS011;37377;45.186;9.778;2022-12-11T15:47:26;4.15;;;2.20;;
51292;SDS011;37377;45.186;9.778;2022-12-11T15:49:54;3.88;;;2.72;;
51292;SDS011;37377;45.186;9.778;2022-12-11T15:52:22;2.40;;;2.20;;
51292;SDS011;37377;45.186;9.778;2022-12-11T15:54:49;3.17;;;2.47;;
51292;SDS011;37377;45.186;9.778;2022-12-11T15:57:18;11.35;;;2.45;;
51292;SDS011;37377;45.186;9.778;2022-12-11T15:59:46;5.30;;;2.30;;
51292;SDS011;37377;45.186;9.778;2022-12-11T16:02:14;5.55;;;2.50;;
51292;SDS011;37377;45.186;9.778;2022-12-11T16:04:41;3.45;;;2.38;;
51292;SDS011;37377;45.186;9.778;2022-12-11T16:07:12;2.85;;;2.40;;
51292;SDS011;37377;45.186;9.778;2022-12-11T16:09:40;2.65;;;2.10;;
51292;SDS011;37377;45.186;9.778;2022-12-11T16:12:07;3.60;;;2.88;;
51292;SDS011;37377;45.186;9.778;2022-12-11T16:14:34;5.40;;;4.05;;
51292;SDS011;37377;45.186;9.778;2022-12-11T16:17:04;6.75;;;4.78;;
51292;SDS011;37377;45.186;9.778;2022-12-11T16:19:31;8.55;;;4.55;;
51292;SDS011;37377;45.186;9.778;2022-12-11T16:21:59;6.32;;;4.40;;
51292;SDS011;37377;45.186;9.778;2022-12-11T16:24:26;6.05;;;4.35;;
51292;SDS011;37377;45.186;9.778;2022-12-11T16:26:53;5.07;;;3.80;;
51292;SDS011;37377;45.186;9.778;2022-12-11T16:29:20;3.85;;;3.45;;
51292;SDS011;37377;45.186;9.778;2022-12-11T16:31:47;3.80;;;2.92;;